Barnett Township, Illinois
Current Conditions -  °F | °C
As of 1:35 AM on Saturday 25 Oct 2014 (Local Time) from KAAA Reporting Station
Scattered Clouds Scattered Clouds  
Wind Chill: 59°   Ceiling: Unl
Heat Index: 59°   Visibility: 10mi
Dew Point: 51°   Wind: 3mph
Humidity: 75%   Direction: 200°SSW
Pressure: 29.94"   Gusts: NA
Location:  40.143°N, 88.9637°W
Report Text: KAAA 250635Z AUTO 20003KT 10SM SCT045 15/11 A2994 RMK AO2 T01500107
Loading
Personal Weather Stations






























Interactive Weather Map
Tropical Storm Tracking
New forecast layout! Learn more

10-Day Weather Forecast

Advertisements
Track Severe Weather on mobile